Decoded Metar for KDET (DETROIT in MI, USA) (IATA:DET) | Meteo·Mobile Aviation Weather
aviador You're here:

KDET Decoded Metar

DETROIT in MI, USA
Report Time2018-10-19 18:53:00
UTC Time2018-10-19 19:25:55
Flight Rules vfr VFR
Wind240° at 14 Gusting to 23 kt
W.Decomp.*RWY 25: 13.9 kt HW 1.2 kt LCW
RWY 33: 1.2 kt HW 13.9 kt LCW
W.Rank240° ranks 1
Current wind is above 240° avg. (9.1)
Visibility9999 m
Phenomena:N/A
Clouds:N/A
Expected CloudBase > 6,000 ft AGL from Temp-Dew spread
CeilingNone
Temp14°C (ISA 0)
Dew Point-1°C (36% RH)
AAT6.9°C
QNH1014 hPa
Density Alt699 ft
Elevation623 ft
Report Wrong Elevation
Raw Report
KDET 191853Z 24014G23KT 10SM CLR 14/M01 A2995 RMK AO2 SLP144
T01441011=

Extra information for KDET:More info

Metar Taf Metar & Taf Last 4 Metars F.Rules Stats Wind Profile Meteogram Temp Stats Airport Information Weather charts Add Link Nearby VenuesMetar ALERT Operation Metar Decoded Social comments

AIRNAV info for KDET